Overview Statistics Trail Chart Weather Telemetry Raw packets
 

This is the latest recevied weather packets stored in our database for station/object WS4FSC-7. If no packets are shown the sender has not sent any weather packets the latest 10 day(s).

<< 71 72 73 74 75 76 77 >>
Time Temp. Humidity Pressure Rain* Wind** Luminosity Snow
1787878430 27.78° C 75% 1015 hPa - - 0 W/m² -
1787878251 27.78° C 75% 1015 hPa - - 0 W/m² -
1787878070 27.78° C 74% 1015 hPa - - 0 W/m² -
1787877890 27.78° C 74% 1015 hPa - - 0 W/m² -
1787877710 27.78° C 74% 1015 hPa - - 0 W/m² -
1787876091 28.33° C 76% 1015 hPa - - 0 W/m² -
1787874830 28.33° C 74% 1015 hPa - - 1 W/m² -
1787874650 28.89° C 74% 1015 hPa - - 1 W/m² -
1787874470 28.89° C 73% 1015 hPa - - 2 W/m² -
1787873932 28.89° C 73% 1015 hPa - - 6 W/m² -
1787872851 29.44° C 72% 1014 hPa - - 18 W/m² -
1787872491 29.44° C 72% 1014 hPa - - 21 W/m² -
1787871230 30° C 70% 1015 hPa - - 37 W/m² -
1787871050 30° C 70% 1015 hPa - - 38 W/m² -
1787870511 30.56° C 67% 1014 hPa - - 48 W/m² -
1787870332 30.56° C 68% 1014 hPa - - 50 W/m² -
1787869971 30.56° C 69% 1014 hPa - - 53 W/m² -
1787869612 30.56° C 69% 1014 hPa - - 55 W/m² -
1787869071 31.11° C 65% 1014 hPa - - 64 W/m² -
1787867631 31.67° C 62% 1014 hPa - - 58 W/m² -
1787867450 32.22° C 61% 1014 hPa - - 67 W/m² -
1787867271 31.67° C 61% 1014 hPa - - 127 W/m² -
1787866731 31.67° C 62% 1014 hPa - - 196 W/m² -
1787866552 31.11° C 62% 1014 hPa - - 217 W/m² -
1787865831 30.56° C 65% 1014 hPa - - 190 W/m² -

* Rain since midnight (hover to see other rain measurements)
** Current wind speed in m/s (hover to see current wind gust speed)